createdAt,value
2023-01-15T00:00:05.974Z,107.39523
2023-01-15T00:05:06.919Z,106.96296
2023-01-15T00:10:07.837Z,106.10526
2023-01-15T00:15:08.909Z,107.39523
2023-01-15T00:20:09.871Z,106.53298
2023-01-15T00:25:10.841Z,106.53298
2023-01-15T00:30:11.805Z,106.96296
2023-01-15T00:35:12.834Z,108.26667
2023-01-15T00:40:13.829Z,107.39523
2023-01-15T00:45:14.751Z,106.10526
2023-01-15T00:50:16.117Z,107.82979
2023-01-15T00:55:17.066Z,107.82979
2023-01-15T01:00:18.058Z,108.26667
2023-01-15T01:05:18.985Z,108.70588
2023-01-15T01:10:19.926Z,108.26667
2023-01-15T01:15:20.903Z,109.5914
2023-01-15T01:20:21.900Z,108.70588
2023-01-15T01:25:22.953Z,108.70588
2023-01-15T01:30:23.858Z,106.53298
2023-01-15T01:35:24.778Z,106.10526
2023-01-15T01:40:25.719Z,105.25654
2023-01-15T01:45:26.795Z,104.41667
2023-01-15T01:50:27.765Z,104.41667
2023-01-15T01:55:28.683Z,106.53298
2023-01-15T02:00:29.799Z,104.83551
2023-01-15T02:05:30.916Z,105.67979
2023-01-15T02:10:31.824Z,105.25654
2023-01-15T02:15:32.767Z,104.0
2023-01-15T02:20:33.709Z,105.25654
2023-01-15T02:25:34.650Z,104.0
2023-01-15T02:30:35.609Z,103.17313
2023-01-15T02:35:36.553Z,101.54476
2023-01-15T02:40:37.479Z,99.94937
2023-01-15T02:45:38.472Z,99.55556
2023-01-15T02:50:39.382Z,98.38596
2023-01-15T02:55:40.291Z,99.16373
2023-01-15T03:00:41.328Z,99.55556
2023-01-15T03:05:42.524Z,99.55556
2023-01-15T03:10:44.077Z,97.23383
2023-01-15T03:15:45.054Z,96.47525
2023-01-15T03:20:46.019Z,97.23383
2023-01-15T03:25:46.968Z,96.8536
2023-01-15T03:30:47.913Z,96.8536
2023-01-15T03:35:48.867Z,95.72414
2023-01-15T03:40:49.911Z,94.61125
2023-01-15T03:45:50.890Z,94.98039
2023-01-15T03:50:51.858Z,95.35135
2023-01-15T03:55:52.794Z,96.09877
2023-01-15T04:00:53.832Z,94.61125
2023-01-15T04:05:54.833Z,95.72414
2023-01-15T04:10:55.768Z,94.2439
2023-01-15T04:15:56.802Z,93.51456
2023-01-15T04:20:57.771Z,91.72182
2023-01-15T04:25:58.716Z,90.66667
2023-01-15T04:30:59.727Z,102.76289
2023-01-15T04:36:00.746Z,121.01149
2023-01-15T04:41:01.829Z,127.8806
2023-01-15T04:46:02.852Z,128.98498
2023-01-15T04:51:03.824Z,128.98498
2023-01-15T04:56:04.728Z,131.23404
2023-01-15T05:01:05.886Z,134.12346
2023-01-15T05:06:06.937Z,138.93671
2023-01-15T05:11:07.874Z,134.71207
2023-01-15T05:16:08.905Z,134.71207
2023-01-15T05:21:09.885Z,135.90031
2023-01-15T05:26:10.916Z,135.90031
2023-01-15T05:31:11.916Z,133.53846
2023-01-15T05:36:12.938Z,135.30435
2023-01-15T05:41:13.889Z,140.80511
2023-01-15T05:46:14.844Z,138.32177
2023-01-15T05:51:15.784Z,131.23404
2023-01-15T05:56:16.795Z,130.66667
2023-01-15T06:01:17.753Z,131.80488
2023-01-15T06:06:18.829Z,127.8806
2023-01-15T06:11:19.770Z,124.11696
2023-01-15T06:16:20.735Z,120.5043
2023-01-15T06:21:21.790Z,118.50425
2023-01-15T06:26:22.712Z,117.52113
2023-01-15T06:31:23.732Z,116.06704
2023-01-15T06:36:24.708Z,117.03371
2023-01-15T06:41:25.719Z,117.03371
2023-01-15T06:46:26.768Z,116.06704
2023-01-15T06:51:29.145Z,115.58774
2023-01-15T06:56:31.824Z,116.06704
2023-01-15T07:01:32.935Z,117.52113
2023-01-15T07:06:33.904Z,117.52113
2023-01-15T07:11:34.778Z,119.49858
2023-01-15T07:16:35.860Z,118.50425
2023-01-15T07:21:36.800Z,118.50425
2023-01-15T07:26:37.760Z,117.52113
2023-01-15T07:31:38.754Z,116.06704
2023-01-15T07:36:39.749Z,116.54902
2023-01-15T07:41:40.735Z,117.03371
2023-01-15T07:46:41.687Z,114.63712
2023-01-15T07:51:42.775Z,114.16575
2023-01-15T07:56:44.007Z,114.16575
2023-01-15T08:01:44.995Z,116.06704
2023-01-15T08:06:45.980Z,114.63712
2023-01-15T08:11:46.905Z,118.0113
2023-01-15T08:16:47.897Z,118.0113
2023-01-15T08:21:48.812Z,115.11111
2023-01-15T08:26:49.735Z,114.63712
2023-01-15T08:31:50.692Z,117.03371
2023-01-15T08:36:51.889Z,115.11111
2023-01-15T08:41:52.891Z,118.0113
2023-01-15T08:46:53.813Z,118.50425
2023-01-15T08:51:54.730Z,117.52113
2023-01-15T08:56:55.897Z,116.54902
2023-01-15T09:01:56.991Z,118.0113
2023-01-15T09:06:58.022Z,118.0113
2023-01-15T09:11:58.978Z,115.11111
2023-01-15T09:16:59.975Z,115.11111
2023-01-15T09:22:00.918Z,117.03371
2023-01-15T09:27:02.180Z,115.11111
2023-01-15T09:32:03.101Z,114.16575
2023-01-15T09:37:04.032Z,114.63712
2023-01-15T09:42:05.361Z,116.54902
2023-01-15T09:47:06.321Z,116.06704
2023-01-15T09:52:07.270Z,121.01149
2023-01-15T09:57:08.191Z,116.06704
2023-01-15T10:02:09.097Z,115.11111
2023-01-15T10:07:10.063Z,117.03371
2023-01-15T10:12:11.018Z,112.30601
2023-01-15T10:17:11.945Z,112.76712
2023-01-15T10:22:12.919Z,115.58774
2023-01-15T10:27:13.973Z,115.11111
2023-01-15T10:32:14.922Z,112.30601
2023-01-15T10:37:15.932Z,111.3913
2023-01-15T10:42:16.886Z,112.30601
2023-01-15T10:47:17.912Z,112.30601
2023-01-15T10:52:18.913Z,114.63712
2023-01-15T10:57:19.869Z,114.16575
2023-01-15T11:02:20.912Z,111.84741
2023-01-15T11:07:21.932Z,118.0113
2023-01-15T11:12:22.859Z,116.54902
2023-01-15T11:17:23.776Z,116.06704
2023-01-15T11:22:24.736Z,119.0
2023-01-15T11:27:25.842Z,121.52161
2023-01-15T11:32:26.849Z,117.03371
2023-01-15T11:37:27.866Z,120.0
2023-01-15T11:42:28.872Z,126.78932
2023-01-15T11:47:29.785Z,124.64516
2023-01-15T11:52:30.711Z,121.01149
2023-01-15T11:57:31.679Z,125.71091
2023-01-15T12:02:32.611Z,124.11696
2023-01-15T12:07:33.560Z,124.64516
2023-01-15T12:12:34.428Z,122.55072
2023-01-15T12:17:37.430Z,120.5043
2023-01-15T12:22:38.576Z,124.64516
2023-01-15T12:27:39.601Z,122.03468
2023-01-15T12:32:40.512Z,124.64516
2023-01-15T12:37:41.425Z,124.11696
2023-01-15T12:42:42.699Z,121.01149
2023-01-15T12:47:43.943Z,121.01149
2023-01-15T12:52:44.907Z,122.03468
2023-01-15T12:57:45.854Z,124.64516
2023-01-15T13:02:46.774Z,125.17647
2023-01-15T13:07:47.777Z,123.06977
2023-01-15T13:12:53.698Z,124.64516
2023-01-15T13:17:54.606Z,124.64516
2023-01-15T13:22:55.501Z,126.24852
2023-01-15T13:27:56.444Z,127.8806
2023-01-15T13:32:57.363Z,130.10272
2023-01-15T13:37:58.392Z,132.3792
2023-01-15T13:42:59.352Z,134.71207
2023-01-15T13:48:00.267Z,133.53846
2023-01-15T13:53:01.248Z,136.5
2023-01-15T13:58:02.375Z,133.53846
2023-01-15T14:03:03.361Z,134.71207
2023-01-15T14:08:04.358Z,134.12346
2023-01-15T14:13:07.735Z,137.10345
2023-01-15T14:18:08.878Z,135.90031
2023-01-15T14:23:09.824Z,136.5
2023-01-15T14:28:10.771Z,143.35275
2023-01-15T14:33:11.819Z,140.17834
2023-01-15T14:38:12.774Z,137.71069
2023-01-15T14:43:13.730Z,141.4359
2023-01-15T14:48:14.714Z,141.4359
2023-01-15T14:53:15.678Z,142.07074
2023-01-15T14:58:16.811Z,144.0
2023-01-15T15:03:17.782Z,142.70968
2023-01-15T15:08:18.755Z,138.93671
2023-01-15T15:13:19.668Z,141.4359
2023-01-15T15:18:20.602Z,143.35275
2023-01-15T15:23:21.519Z,144.65147
2023-01-15T15:28:22.487Z,146.63158
2023-01-15T15:33:23.436Z,142.07074
2023-01-15T15:38:24.389Z,145.96721
2023-01-15T15:43:25.402Z,147.97351
2023-01-15T15:48:26.509Z,148.65116
2023-01-15T15:53:27.467Z,149.33333
2023-01-15T15:58:28.407Z,150.02007
2023-01-15T16:03:31.731Z,152.10811
2023-01-15T16:08:33.741Z,149.33333
2023-01-15T16:13:34.672Z,150.02007
2023-01-15T16:18:35.722Z,152.10811
2023-01-15T16:23:36.912Z,149.33333
2023-01-15T16:28:37.836Z,146.63158
2023-01-15T16:33:38.864Z,148.65116
2023-01-15T16:38:39.803Z,152.81356
2023-01-15T16:43:40.771Z,154.9589
2023-01-15T16:48:41.716Z,155.68385
2023-01-15T16:53:43.023Z,153.52381
2023-01-15T16:58:44.304Z,154.9589
2023-01-15T17:03:45.229Z,157.14879
2023-01-15T17:08:46.155Z,158.63415
2023-01-15T17:13:47.075Z,157.14879
2023-01-15T17:18:47.996Z,159.38462
2023-01-15T17:23:48.921Z,156.41379
2023-01-15T17:28:49.814Z,159.38462
2023-01-15T17:33:51.006Z,157.14879
2023-01-15T17:38:51.948Z,160.14035
2023-01-15T17:43:52.854Z,160.90141
2023-01-15T17:48:53.779Z,162.43972
2023-01-15T17:53:54.747Z,160.90141
2023-01-15T17:58:55.672Z,161.66784
2023-01-15T18:03:56.598Z,164.0
2023-01-15T18:08:57.543Z,163.21708
2023-01-15T18:13:58.456Z,163.21708
2023-01-15T18:18:59.442Z,162.43972
2023-01-15T18:24:00.437Z,156.41379
2023-01-15T18:29:01.463Z,157.14879
2023-01-15T18:34:02.395Z,162.43972
2023-01-15T18:39:03.350Z,158.63415
2023-01-15T18:44:04.287Z,162.43972
2023-01-15T18:49:05.221Z,160.90141
2023-01-15T18:54:06.155Z,160.14035
2023-01-15T18:59:07.089Z,163.21708
2023-01-15T19:04:08.014Z,164.0
2023-01-15T19:09:08.956Z,162.43972
2023-01-15T19:14:09.856Z,159.38462
2023-01-15T19:19:10.777Z,161.66784
2023-01-15T19:24:11.699Z,163.21708
2023-01-15T19:29:12.764Z,161.66784
2023-01-15T19:34:33.175Z,157.88889
2023-01-15T19:39:34.743Z,160.90141
2023-01-15T19:44:35.666Z,164.0
2023-01-15T19:49:36.608Z,160.90141
2023-01-15T19:54:37.528Z,160.90141
2023-01-15T19:59:38.472Z,162.43972
2023-01-15T20:04:39.365Z,162.43972
2023-01-15T20:09:40.293Z,162.43972
2023-01-15T20:14:41.246Z,162.43972
2023-01-15T20:19:42.231Z,160.90141
2023-01-15T20:24:43.411Z,161.66784
2023-01-15T20:29:44.441Z,163.21708
2023-01-15T20:34:45.370Z,164.0
2023-01-15T20:39:46.305Z,162.43972
2023-01-15T20:44:47.258Z,162.43972
2023-01-15T20:49:48.186Z,159.38462
2023-01-15T20:54:49.134Z,159.38462
2023-01-15T20:59:50.084Z,161.66784
2023-01-15T21:04:51.023Z,157.14879
2023-01-15T21:09:52.099Z,156.41379
2023-01-15T21:14:53.030Z,156.41379
2023-01-15T21:19:53.962Z,156.41379
2023-01-15T21:24:54.978Z,157.88889
2023-01-15T21:29:55.921Z,155.68385
2023-01-15T21:34:56.846Z,153.52381
2023-01-15T21:39:57.924Z,152.81356
2023-01-15T21:44:58.859Z,152.81356
2023-01-15T21:49:59.810Z,153.52381
2023-01-15T21:55:00.728Z,154.9589
2023-01-15T22:00:01.868Z,151.40741
2023-01-15T22:05:02.775Z,155.68385
2023-01-15T22:10:03.736Z,155.68385
2023-01-15T22:15:04.713Z,154.23891
2023-01-15T22:20:05.702Z,153.52381
2023-01-15T22:25:06.678Z,150.71141
2023-01-15T22:30:07.639Z,152.10811
2023-01-15T22:35:08.602Z,152.10811
2023-01-15T22:40:09.551Z,151.40741
2023-01-15T22:45:10.523Z,149.33333
2023-01-15T22:50:11.470Z,149.33333
2023-01-15T22:55:12.422Z,154.23891
2023-01-15T23:00:13.463Z,152.81356
2023-01-15T23:05:14.388Z,154.9589
2023-01-15T23:10:15.336Z,152.81356
2023-01-15T23:15:16.287Z,152.10811
2023-01-15T23:20:17.209Z,152.81356
2023-01-15T23:25:18.158Z,148.65116
2023-01-15T23:30:19.048Z,151.40741
2023-01-15T23:35:19.937Z,146.63158
2023-01-15T23:40:21.128Z,150.71141
2023-01-15T23:45:22.048Z,148.65116
2023-01-15T23:50:22.988Z,151.40741
2023-01-15T23:55:24.017Z,151.40741
